Check out our new BloomSky Weather System.

Active alerts


No alerts


Thunder radar  blitzortung!


Rain radar more information rain snow radar


Visit our other weather sites:

Template documentation
and downloads

And another site



Weather Underground History page Text

Daily Summary for October 27, 2017 Units:  English    Metric   Both
« Previous Day
Next Day »
Daily Weekly Monthly Yearly Custom
  High: Low: Average:
Temperature: 67.5 °F 49.5 °F 61.1 °F
Dew Point: 61.9 °F 32.7 °F 50.1 °F
Humidity: 94 % 49 % 69 %
Wind Speed: 14.0 mph 0.0 mph 4 mph
Wind Gust: 22.0 mph - -
Wind:- - WNW
Pressure: 30.12 in 29.80 in -
Precipitation: 0.00 in    
Historical Graphs
 
 
Tabular Data for October 27, 2017
Time Temperature Dew Point Pressure Wind Wind Speed Wind Gust Humidity Rainfall Rate (Hourly)
00:01 65.1 °F 58.8 °F 29.82 in Calm   2.0 mph 80 % 0.00 in
00:06 65.1 °F 58.8 °F 29.82 in SSE 1.0 mph 2.0 mph 80 % 0.00 in
00:11 65.1 °F 58.8 °F 29.82 in Calm   2.0 mph 80 % 0.00 in
00:16 64.9 °F 59.0 °F 29.82 in Calm   2.0 mph 81 % 0.00 in
00:21 64.9 °F 59.0 °F 29.82 in SSE 1.0 mph 2.0 mph 81 % 0.00 in
00:26 65.1 °F 59.2 °F 29.82 in SE 1.0 mph 3.0 mph 81 % 0.00 in
00:31 65.1 °F 59.2 °F 29.82 in Calm   4.0 mph 81 % 0.00 in
00:36 65.1 °F 58.8 °F 29.82 in Calm   4.0 mph 80 % 0.00 in
00:41 64.8 °F 58.8 °F 29.82 in Calm   4.0 mph 81 % 0.00 in
00:46 64.6 °F 59.0 °F 29.82 in Calm   1.0 mph 82 % 0.00 in
00:51 64.2 °F 58.6 °F 29.82 in Calm     82 % 0.00 in
00:56 64.0 °F 58.8 °F 29.82 in Calm     83 % 0.00 in
01:01 63.9 °F 58.6 °F 29.82 in Calm     83 % 0.00 in
01:06 63.5 °F 58.6 °F 29.82 in Calm     84 % 0.00 in
01:11 63.3 °F 58.8 °F 29.82 in Calm     85 % 0.00 in
01:16 63.0 °F 58.5 °F 29.82 in Calm     85 % 0.00 in
01:21 62.8 °F 58.3 °F 29.82 in Calm     85 % 0.00 in
01:26 62.4 °F 58.1 °F 29.82 in Calm     86 % 0.00 in
01:31 62.2 °F 58.3 °F 29.82 in Calm     87 % 0.00 in
01:36 62.1 °F 58.1 °F 29.82 in Calm     87 % 0.00 in
01:41 61.9 °F 58.3 °F 29.81 in Calm     88 % 0.00 in
01:46 61.5 °F 57.9 °F 29.81 in Calm     88 % 0.00 in
01:51 61.3 °F 57.7 °F 29.81 in Calm     88 % 0.00 in
01:56 61.2 °F 57.9 °F 29.81 in Calm     89 % 0.00 in
02:01 61.0 °F 58.1 °F 29.81 in Calm     90 % 0.00 in
02:06 61.2 °F 58.5 °F 29.81 in Calm     91 % 0.00 in
02:11 61.3 °F 58.5 °F 29.81 in Calm   1.0 mph 90 % 0.00 in
02:16 61.3 °F 58.5 °F 29.81 in Calm   1.0 mph 90 % 0.00 in
02:21 61.2 °F 58.3 °F 29.81 in Calm   1.0 mph 90 % 0.00 in
02:26 61.2 °F 58.3 °F 29.80 in Calm     90 % 0.00 in
02:31 61.0 °F 58.3 °F 29.81 in Calm     91 % 0.00 in
02:36 61.0 °F 58.3 °F 29.81 in Calm     91 % 0.00 in
02:41 60.8 °F 58.1 °F 29.80 in Calm     91 % 0.00 in
02:46 60.6 °F 57.9 °F 29.80 in Calm     91 % 0.00 in
02:51 60.4 °F 57.7 °F 29.80 in Calm     91 % 0.00 in
02:56 60.4 °F 58.1 °F 29.80 in Calm     92 % 0.00 in
03:01 60.3 °F 57.9 °F 29.80 in Calm     92 % 0.00 in
03:06 60.3 °F 58.3 °F 29.80 in Calm     93 % 0.00 in
03:11 60.4 °F 58.5 °F 29.80 in Calm     93 % 0.00 in
03:16 60.4 °F 58.5 °F 29.80 in Calm   1.0 mph 93 % 0.00 in
03:21 61.0 °F 59.2 °F 29.80 in Calm   1.0 mph 94 % 0.00 in
03:26 61.3 °F 59.4 °F 29.80 in Calm   1.0 mph 93 % 0.00 in
03:31 61.9 °F 59.9 °F 29.80 in Calm   1.0 mph 93 % 0.00 in
03:36 61.9 °F 59.5 °F 29.80 in Calm   1.0 mph 92 % 0.00 in
03:41 61.9 °F 59.5 °F 29.80 in Calm   1.0 mph 92 % 0.00 in
03:46 62.1 °F 59.7 °F 29.80 in Calm     92 % 0.00 in
03:51 62.1 °F 59.4 °F 29.80 in Calm   1.0 mph 91 % 0.00 in
03:56 62.1 °F 59.4 °F 29.81 in Calm   1.0 mph 91 % 0.00 in
04:01 61.9 °F 59.2 °F 29.81 in Calm   1.0 mph 91 % 0.00 in
04:06 61.7 °F 59.4 °F 29.81 in Calm   1.0 mph 92 % 0.00 in
04:11 61.5 °F 59.2 °F 29.81 in Calm   1.0 mph 92 % 0.00 in
04:16 61.7 °F 59.4 °F 29.81 in Calm   1.0 mph 92 % 0.00 in
04:21 61.9 °F 59.5 °F 29.82 in Calm   1.0 mph 92 % 0.00 in
04:26 62.1 °F 59.7 °F 29.82 in Calm     92 % 0.00 in
04:31 62.4 °F 60.1 °F 29.82 in Calm   1.0 mph 92 % 0.00 in
04:36 62.4 °F 60.1 °F 29.82 in Calm   1.0 mph 92 % 0.00 in
04:41 62.6 °F 60.3 °F 29.82 in Calm   1.0 mph 92 % 0.00 in
04:46 62.8 °F 60.4 °F 29.82 in Calm     92 % 0.00 in
04:51 62.8 °F 60.4 °F 29.82 in Calm     92 % 0.00 in
04:56 62.8 °F 60.4 °F 29.82 in Calm     92 % 0.00 in
05:01 63.0 °F 60.6 °F 29.82 in Calm     92 % 0.00 in
05:06 62.8 °F 60.4 °F 29.82 in Calm     92 % 0.00 in
05:11 62.6 °F 60.3 °F 29.83 in NW 1.0 mph   92 % 0.00 in
05:16 62.6 °F 60.3 °F 29.83 in Calm   1.0 mph 92 % 0.00 in
05:21 62.4 °F 60.1 °F 29.83 in Calm   1.0 mph 92 % 0.00 in
05:26 62.4 °F 60.1 °F 29.84 in Calm   1.0 mph 92 % 0.00 in
05:31 62.4 °F 60.4 °F 29.84 in Calm     93 % 0.00 in
05:36 62.4 °F 60.4 °F 29.84 in Calm     93 % 0.00 in
05:41 62.8 °F 60.8 °F 29.84 in NW 1.0 mph 1.0 mph 93 % 0.00 in
05:46 63.0 °F 60.6 °F 29.84 in Calm   2.0 mph 92 % 0.00 in
05:51 63.1 °F 60.8 °F 29.84 in Calm   2.0 mph 92 % 0.00 in
05:56 63.3 °F 60.6 °F 29.84 in Calm   2.0 mph 91 % 0.00 in
06:01 63.3 °F 60.6 °F 29.84 in Calm   2.0 mph 91 % 0.00 in
06:06 63.5 °F 60.8 °F 29.84 in Calm     91 % 0.00 in
06:11 63.5 °F 60.8 °F 29.84 in Calm     91 % 0.00 in
06:16 63.5 °F 60.8 °F 29.84 in Calm     91 % 0.00 in
06:21 63.5 °F 60.8 °F 29.84 in Calm     91 % 0.00 in
06:26 63.3 °F 60.6 °F 29.84 in Calm     91 % 0.00 in
06:31 63.3 °F 60.6 °F 29.84 in Calm     91 % 0.00 in
06:36 63.3 °F 60.6 °F 29.84 in Calm     91 % 0.00 in
06:41 63.1 °F 60.4 °F 29.84 in Calm     91 % 0.00 in
06:46 63.0 °F 60.3 °F 29.84 in Calm     91 % 0.00 in
06:51 63.0 °F 60.6 °F 29.85 in Calm   1.0 mph 92 % 0.00 in
06:56 63.0 °F 60.6 °F 29.85 in NW 1.0 mph 2.0 mph 92 % 0.00 in
07:01 63.0 °F 60.6 °F 29.86 in Calm   3.0 mph 92 % 0.00 in
07:06 63.3 °F 61.0 °F 29.86 in NNW 1.0 mph 3.0 mph 92 % 0.00 in
07:11 63.5 °F 60.8 °F 29.86 in Calm   3.0 mph 91 % 0.00 in
07:16 63.7 °F 61.0 °F 29.85 in Calm   3.0 mph 91 % 0.00 in
07:21 63.7 °F 61.0 °F 29.85 in Calm   3.0 mph 91 % 0.00 in
07:26 63.7 °F 61.0 °F 29.85 in Calm   2.0 mph 91 % 0.00 in
07:31 63.7 °F 61.0 °F 29.85 in Calm   1.0 mph 91 % 0.00 in
07:36 63.9 °F 61.2 °F 29.86 in NW 3.0 mph 3.0 mph 91 % 0.00 in
07:41 63.9 °F 61.2 °F 29.86 in Calm   4.0 mph 91 % 0.00 in
07:46 63.9 °F 61.2 °F 29.86 in Calm   4.0 mph 91 % 0.00 in
07:51 63.9 °F 61.2 °F 29.86 in Calm   4.0 mph 91 % 0.00 in
07:56 63.9 °F 61.2 °F 29.86 in Calm   2.0 mph 91 % 0.00 in
08:01 63.9 °F 61.2 °F 29.86 in Calm   2.0 mph 91 % 0.00 in
08:06 63.9 °F 61.2 °F 29.87 in Calm     91 % 0.00 in
08:11 64.0 °F 61.3 °F 29.87 in NW 1.0 mph   91 % 0.00 in
08:16 64.2 °F 61.5 °F 29.88 in West 2.0 mph 3.0 mph 91 % 0.00 in
08:21 64.6 °F 61.9 °F 29.88 in WNW 4.0 mph 4.0 mph 91 % 0.00 in
08:26 64.9 °F 61.9 °F 29.88 in NNW 2.0 mph 7.0 mph 90 % 0.00 in
08:31 65.1 °F 61.9 °F 29.88 in NW 4.0 mph 7.0 mph 89 % 0.00 in
08:36 65.3 °F 61.3 °F 29.88 in WNW 3.0 mph 8.0 mph 87 % 0.00 in
08:41 65.5 °F 61.5 °F 29.89 in NW 6.0 mph 8.0 mph 87 % 0.00 in
08:46 65.3 °F 61.0 °F 29.89 in NW 3.0 mph 8.0 mph 86 % 0.00 in
08:51 64.9 °F 61.0 °F 29.89 in WNW 4.0 mph 8.0 mph 87 % 0.00 in
08:56 64.6 °F 61.0 °F 29.89 in NW 4.0 mph 8.0 mph 88 % 0.00 in
09:01 64.2 °F 60.6 °F 29.90 in NW 5.0 mph 9.0 mph 88 % 0.00 in
09:06 64.0 °F 60.4 °F 29.90 in WNW 4.0 mph 9.0 mph 88 % 0.00 in
09:11 64.0 °F 59.4 °F 29.91 in NW 6.0 mph 9.0 mph 85 % 0.00 in
09:16 63.9 °F 58.6 °F 29.91 in NNW 1.0 mph 13.0 mph 83 % 0.00 in
09:21 63.3 °F 57.7 °F 29.91 in NNW 9.0 mph 13.0 mph 82 % 0.00 in
09:26 63.0 °F 57.4 °F 29.92 in NW 4.0 mph 13.0 mph 82 % 0.00 in
09:31 62.6 °F 56.3 °F 29.92 in West 5.0 mph 10.0 mph 80 % 0.00 in
09:36 62.4 °F 54.3 °F 29.92 in WNW 8.0 mph 12.0 mph 75 % 0.00 in
09:41 62.2 °F 53.4 °F 29.93 in NW 8.0 mph 13.0 mph 73 % 0.00 in
09:46 61.9 °F 53.1 °F 29.93 in NW 5.0 mph 14.0 mph 73 % 0.00 in
09:51 61.9 °F 52.7 °F 29.93 in NW 5.0 mph 14.0 mph 72 % 0.00 in
09:56 61.9 °F 52.7 °F 29.93 in NW 3.0 mph 14.0 mph 72 % 0.00 in
10:01 61.9 °F 52.7 °F 29.93 in North 7.0 mph 13.0 mph 72 % 0.00 in
10:11 62.1 °F 52.5 °F 29.94 in NW 4.0 mph 12.0 mph 71 % 0.00 in
10:16 62.1 °F 52.2 °F 29.94 in NW 9.0 mph 13.0 mph 70 % 0.00 in
10:21 61.9 °F 51.3 °F 29.94 in NW 9.0 mph 15.0 mph 68 % 0.00 in
10:26 61.9 °F 51.6 °F 29.94 in NNW 6.0 mph 15.0 mph 69 % 0.00 in
10:31 61.9 °F 51.3 °F 29.94 in NW 4.0 mph 15.0 mph 68 % 0.00 in
10:36 61.7 °F 50.7 °F 29.94 in WNW 7.0 mph 11.0 mph 67 % 0.00 in
10:41 61.5 °F 50.5 °F 29.95 in NW 5.0 mph 13.0 mph 67 % 0.00 in
10:46 61.9 °F 50.7 °F 29.95 in WNW 3.0 mph 13.0 mph 67 % 0.00 in
10:51 62.1 °F 50.5 °F 29.94 in WNW 4.0 mph 13.0 mph 66 % 0.00 in
10:56 62.2 °F 51.1 °F 29.95 in NNW 4.0 mph 11.0 mph 67 % 0.00 in
11:01 62.2 °F 49.5 °F 29.95 in NW 5.0 mph 11.0 mph 63 % 0.00 in
11:06 62.2 °F 50.0 °F 29.95 in NW 10.0 mph 13.0 mph 64 % 0.00 in
11:11 62.1 °F 49.8 °F 29.95 in West 6.0 mph 15.0 mph 64 % 0.00 in
11:16 62.2 °F 50.0 °F 29.95 in NW 10.0 mph 15.0 mph 64 % 0.00 in
11:21 62.2 °F 50.0 °F 29.95 in NW 7.0 mph 15.0 mph 64 % 0.00 in
11:26 62.4 °F 50.0 °F 29.95 in NNW 4.0 mph 15.0 mph 64 % 0.00 in
11:31 62.8 °F 50.0 °F 29.96 in North 8.0 mph 15.0 mph 63 % 0.00 in
11:36 63.0 °F 49.8 °F 29.96 in WNW 7.0 mph 14.0 mph 62 % 0.00 in
11:41 63.1 °F 49.8 °F 29.95 in WNW 8.0 mph 14.0 mph 62 % 0.00 in
11:46 63.0 °F 49.3 °F 29.95 in NW 6.0 mph 13.0 mph 61 % 0.00 in
11:51 63.0 °F 49.8 °F 29.96 in North 8.0 mph 15.0 mph 62 % 0.00 in
11:56 63.1 °F 49.8 °F 29.96 in NW 11.0 mph 15.0 mph 62 % 0.00 in
12:01 63.3 °F 49.6 °F 29.96 in NW 4.0 mph 15.0 mph 61 % 0.00 in
12:11 63.7 °F 50.0 °F 29.96 in NW 5.0 mph 12.0 mph 61 % 0.00 in
12:16 63.9 °F 50.2 °F 29.96 in WNW 4.0 mph 12.0 mph 61 % 0.00 in
12:21 64.0 °F 49.8 °F 29.95 in WNW 10.0 mph 12.0 mph 60 % 0.00 in
12:26 64.6 °F 50.9 °F 29.96 in NW 3.0 mph 12.0 mph 61 % 0.00 in
12:31 64.9 °F 49.8 °F 29.95 in NNW 11.0 mph 13.0 mph 58 % 0.00 in
12:36 64.8 °F 49.6 °F 29.95 in NW 10.0 mph 18.0 mph 58 % 0.00 in
12:41 64.9 °F 49.8 °F 29.95 in NW 5.0 mph 18.0 mph 58 % 0.00 in
12:46 64.8 °F 49.6 °F 29.95 in North 11.0 mph 18.0 mph 58 % 0.00 in
12:51 64.6 °F 49.5 °F 29.95 in NW 7.0 mph 14.0 mph 58 % 0.00 in
12:56 64.8 °F 49.6 °F 29.95 in North 9.0 mph 14.0 mph 58 % 0.00 in
13:01 64.6 °F 49.5 °F 29.95 in WNW 4.0 mph 15.0 mph 58 % 0.00 in
13:06 64.6 °F 49.5 °F 29.94 in NNW 7.0 mph 15.0 mph 58 % 0.00 in
13:11 64.9 °F 49.8 °F 29.94 in NW 6.0 mph 15.0 mph 58 % 0.00 in
13:16 65.1 °F 49.5 °F 29.94 in WNW 9.0 mph 12.0 mph 57 % 0.00 in
13:21 64.9 °F 48.9 °F 29.94 in WNW 10.0 mph 17.0 mph 56 % 0.00 in
13:26 64.8 °F 48.7 °F 29.94 in WNW 5.0 mph 17.0 mph 56 % 0.00 in
13:31 64.9 °F 48.9 °F 29.94 in NW 6.0 mph 18.0 mph 56 % 0.00 in
13:36 65.5 °F 49.3 °F 29.93 in WNW 7.0 mph 18.0 mph 56 % 0.00 in
13:41 65.7 °F 49.1 °F 29.93 in NW 5.0 mph 18.0 mph 55 % 0.00 in
13:46 65.5 °F 48.9 °F 29.93 in NNW 6.0 mph 13.0 mph 55 % 0.00 in
13:51 65.5 °F 48.9 °F 29.93 in NW 13.0 mph 13.0 mph 55 % 0.00 in
14:01 65.7 °F 49.5 °F 29.92 in SW 5.0 mph 16.0 mph 56 % 0.00 in
14:06 66.0 °F 49.5 °F 29.92 in North 7.0 mph 16.0 mph 55 % 0.00 in
14:11 66.4 °F 49.6 °F 29.92 in NNW 4.0 mph 15.0 mph 55 % 0.00 in
14:16 66.4 °F 49.3 °F 29.92 in NNW 11.0 mph 15.0 mph 54 % 0.00 in
14:21 66.4 °F 49.6 °F 29.92 in NNW 5.0 mph 15.0 mph 55 % 0.00 in
14:26 66.9 °F 49.3 °F 29.92 in WNW 2.0 mph 13.0 mph 53 % 0.00 in
14:31 66.6 °F 48.4 °F 29.92 in NW 6.0 mph 15.0 mph 52 % 0.00 in
14:36 66.7 °F 48.6 °F 29.93 in West 8.0 mph 15.0 mph 52 % 0.00 in
14:41 66.9 °F 48.7 °F 29.93 in West 6.0 mph 16.0 mph 52 % 0.00 in
14:46 67.1 °F 49.5 °F 29.93 in NW 8.0 mph 16.0 mph 53 % 0.00 in
14:51 66.7 °F 48.6 °F 29.92 in North 9.0 mph 16.0 mph 52 % 0.00 in
14:56 67.1 °F 48.9 °F 29.92 in NNW 7.0 mph 16.0 mph 52 % 0.00 in
15:01 67.3 °F 49.1 °F 29.92 in WNW 6.0 mph 16.0 mph 52 % 0.00 in
15:06 67.5 °F 48.2 °F 29.92 in WNW 5.0 mph 14.0 mph 50 % 0.00 in
15:11 67.5 °F 49.3 °F 29.92 in NNW 4.0 mph 13.0 mph 52 % 0.00 in
15:16 66.9 °F 47.7 °F 29.92 in NW 7.0 mph 13.0 mph 50 % 0.00 in
15:21 66.9 °F 48.2 °F 29.92 in NW 8.0 mph 15.0 mph 51 % 0.00 in
15:26 66.9 °F 48.2 °F 29.92 in WNW 12.0 mph 15.0 mph 51 % 0.00 in
15:31 66.9 °F 48.2 °F 29.92 in WSW 12.0 mph 15.0 mph 51 % 0.00 in
15:36 66.6 °F 46.8 °F 29.92 in WNW 10.0 mph 15.0 mph 49 % 0.00 in
15:41 66.2 °F 46.9 °F 29.93 in WNW 7.0 mph 16.0 mph 50 % 0.00 in
15:51 65.5 °F 46.4 °F 29.93 in WNW 10.0 mph 18.0 mph 50 % 0.00 in
15:56 65.1 °F 46.6 °F 29.94 in NW 9.0 mph 22.0 mph 51 % 0.00 in
16:01 65.1 °F 46.6 °F 29.94 in NW 8.0 mph 22.0 mph 51 % 0.00 in
16:06 64.8 °F 46.2 °F 29.94 in NW 3.0 mph 22.0 mph 51 % 0.00 in
16:11 64.6 °F 46.6 °F 29.94 in NW 5.0 mph 17.0 mph 52 % 0.00 in
16:16 64.6 °F 47.1 °F 29.94 in NW 7.0 mph 17.0 mph 53 % 0.00 in
16:21 64.2 °F 45.7 °F 29.94 in NW 12.0 mph 12.0 mph 51 % 0.00 in
16:26 63.9 °F 45.9 °F 29.94 in NW 7.0 mph 13.0 mph 52 % 0.00 in
16:31 63.9 °F 45.3 °F 29.94 in WNW 6.0 mph 13.0 mph 51 % 0.00 in
16:36 64.2 °F 46.2 °F 29.94 in NNW 5.0 mph 13.0 mph 52 % 0.00 in
16:41 64.0 °F 45.5 °F 29.94 in WNW 12.0 mph 13.0 mph 51 % 0.00 in
16:46 63.7 °F 45.1 °F 29.94 in NNW 7.0 mph 19.0 mph 51 % 0.00 in
16:51 63.1 °F 44.2 °F 29.94 in NW 9.0 mph 19.0 mph 50 % 0.00 in
16:56 63.0 °F 45.1 °F 29.94 in NNW 9.0 mph 19.0 mph 52 % 0.00 in
17:01 63.0 °F 44.6 °F 29.95 in NNW 14.0 mph 15.0 mph 51 % 0.00 in
17:06 63.0 °F 45.1 °F 29.95 in NW 5.0 mph 16.0 mph 52 % 0.00 in
17:11 62.8 °F 44.4 °F 29.95 in NW 10.0 mph 16.0 mph 51 % 0.00 in
17:16 62.1 °F 43.7 °F 29.95 in North 6.0 mph 20.0 mph 51 % 0.00 in
17:21 61.5 °F 43.7 °F 29.95 in NNW 3.0 mph 20.0 mph 52 % 0.00 in
17:26 61.2 °F 43.0 °F 29.96 in NW 7.0 mph 20.0 mph 51 % 0.00 in
17:31 60.8 °F 42.6 °F 29.96 in WNW 4.0 mph 15.0 mph 51 % 0.00 in
17:36 60.4 °F 42.3 °F 29.96 in NW 6.0 mph 14.0 mph 51 % 0.00 in
17:41 60.1 °F 41.9 °F 29.96 in NW 9.0 mph 14.0 mph 51 % 0.00 in
17:46 59.9 °F 42.3 °F 29.96 in WNW 8.0 mph 17.0 mph 52 % 0.00 in
17:51 59.9 °F 42.3 °F 29.97 in NW 4.0 mph 17.0 mph 52 % 0.00 in
17:56 59.7 °F 42.1 °F 29.97 in North 8.0 mph 17.0 mph 52 % 0.00 in
18:01 59.7 °F 42.1 °F 29.97 in North 9.0 mph 15.0 mph 52 % 0.00 in
18:06 59.5 °F 41.9 °F 29.98 in NW 7.0 mph 13.0 mph 52 % 0.00 in
18:11 59.4 °F 41.7 °F 29.98 in NW 5.0 mph 13.0 mph 52 % 0.00 in
18:16 59.2 °F 42.1 °F 29.98 in WNW 5.0 mph 13.0 mph 53 % 0.00 in
18:21 59.2 °F 42.1 °F 29.98 in NW 3.0 mph 13.0 mph 53 % 0.00 in
18:26 59.2 °F 42.6 °F 29.98 in NNW 3.0 mph 11.0 mph 54 % 0.00 in
18:31 59.0 °F 40.8 °F 29.98 in NNW 14.0 mph 14.0 mph 51 % 0.00 in
18:36 58.8 °F 40.3 °F 29.98 in WNW 10.0 mph 15.0 mph 50 % 0.00 in
18:41 58.6 °F 39.6 °F 29.99 in NW 6.0 mph 15.0 mph 49 % 0.00 in
18:46 58.5 °F 39.9 °F 29.99 in NW 3.0 mph 15.0 mph 50 % 0.00 in
18:51 58.3 °F 39.2 °F 29.99 in WNW 3.0 mph 14.0 mph 49 % 0.00 in
18:56 57.9 °F 39.4 °F 29.99 in NW 5.0 mph 12.0 mph 50 % 0.00 in
19:01 57.7 °F 39.2 °F 30.01 in NW 5.0 mph 12.0 mph 50 % 0.00 in
19:06 57.6 °F 39.0 °F 30.01 in WNW 9.0 mph 16.0 mph 50 % 0.00 in
19:11 57.4 °F 38.3 °F 30.02 in NNW 11.0 mph 16.0 mph 49 % 0.00 in
19:16 57.0 °F 38.1 °F 30.02 in WNW 9.0 mph 16.0 mph 49 % 0.00 in
19:21 56.8 °F 37.9 °F 30.02 in NW 4.0 mph 15.0 mph 49 % 0.00 in
19:26 56.7 °F 37.8 °F 30.02 in WNW 3.0 mph 15.0 mph 49 % 0.00 in
19:31 56.5 °F 37.6 °F 30.02 in NW 7.0 mph 13.0 mph 49 % 0.00 in
19:36 56.3 °F 37.4 °F 30.02 in NW 4.0 mph 13.0 mph 49 % 0.00 in
19:41 56.1 °F 37.2 °F 30.02 in NW 3.0 mph 13.0 mph 49 % 0.00 in
19:46 55.9 °F 38.1 °F 30.03 in NW 2.0 mph 9.0 mph 51 % 0.00 in
19:51 55.8 °F 37.9 °F 30.03 in NW 5.0 mph 9.0 mph 51 % 0.00 in
19:56 55.6 °F 37.8 °F 30.03 in NW 5.0 mph 8.0 mph 51 % 0.00 in
20:01 55.4 °F 37.6 °F 30.03 in NW 2.0 mph 8.0 mph 51 % 0.00 in
20:06 55.4 °F 37.0 °F 30.04 in North 2.0 mph 8.0 mph 50 % 0.00 in
20:11 55.4 °F 37.0 °F 30.04 in WNW 2.0 mph 8.0 mph 50 % 0.00 in
20:16 55.2 °F 37.4 °F 30.04 in NW 4.0 mph 9.0 mph 51 % 0.00 in
20:21 55.2 °F 37.4 °F 30.04 in North 2.0 mph 9.0 mph 51 % 0.00 in
20:26 55.2 °F 37.4 °F 30.04 in NW 3.0 mph 9.0 mph 51 % 0.00 in
20:31 55.2 °F 37.9 °F 30.04 in WNW 4.0 mph 9.0 mph 52 % 0.00 in
20:35 55.2 °F 38.3 °F 30.04 in WNW 2.0 mph 11.0 mph 53 % 0.00 in
20:41 55.2 °F 38.3 °F 30.04 in NW 3.0 mph 11.0 mph 53 % 0.00 in
20:46 55.4 °F 38.5 °F 30.04 in WNW 3.0 mph 11.0 mph 53 % 0.00 in
20:51 55.4 °F 39.0 °F 30.04 in WNW 4.0 mph 8.0 mph 54 % 0.00 in
20:56 55.4 °F 39.0 °F 30.04 in NW 5.0 mph 7.0 mph 54 % 0.00 in
21:01 55.6 °F 39.7 °F 30.04 in NW 2.0 mph 8.0 mph 55 % 0.00 in
21:06 55.6 °F 39.7 °F 30.04 in NNW 4.0 mph 10.0 mph 55 % 0.00 in
21:11 55.6 °F 40.1 °F 30.04 in WNW 2.0 mph 10.0 mph 56 % 0.00 in
21:16 55.4 °F 39.6 °F 30.05 in WNW 4.0 mph 11.0 mph 55 % 0.00 in
21:21 55.2 °F 39.4 °F 30.06 in North 2.0 mph 11.0 mph 55 % 0.00 in
21:26 55.2 °F 39.4 °F 30.06 in North 5.0 mph 11.0 mph 55 % 0.00 in
21:31 55.0 °F 39.2 °F 30.06 in NW 7.0 mph 11.0 mph 55 % 0.00 in
21:36 54.7 °F 37.9 °F 30.06 in NNW 11.0 mph 16.0 mph 53 % 0.00 in
21:41 54.3 °F 37.6 °F 30.06 in West 9.0 mph 16.0 mph 53 % 0.00 in
21:46 54.1 °F 37.4 °F 30.07 in WNW 6.0 mph 16.0 mph 53 % 0.00 in
21:51 54.0 °F 37.2 °F 30.07 in NW 5.0 mph 14.0 mph 53 % 0.00 in
21:56 53.8 °F 37.6 °F 30.08 in NW 6.0 mph 13.0 mph 54 % 0.00 in
22:01 53.6 °F 37.4 °F 30.08 in WNW 6.0 mph 17.0 mph 54 % 0.00 in
22:06 53.2 °F 37.4 °F 30.08 in NNW 5.0 mph 17.0 mph 55 % 0.00 in
22:11 53.1 °F 37.4 °F 30.09 in NNW 7.0 mph 17.0 mph 55 % 0.00 in
22:17 52.9 °F 37.6 °F 30.09 in NW 9.0 mph 16.0 mph 56 % 0.00 in
22:21 52.7 °F 37.4 °F 30.09 in WNW 3.0 mph 16.0 mph 56 % 0.00 in
22:23 52.7 °F 36.5 °F 30.09 in WNW 7.0 mph 16.0 mph 54 % 0.00 in
22:25 52.5 °F 36.3 °F 30.09 in WNW 3.0 mph 16.0 mph 54 % 0.00 in
22:28 52.3 °F 35.8 °F 30.09 in NW 7.0 mph 16.0 mph 53 % 0.00 in
22:33 52.2 °F 35.6 °F 30.10 in NNW 4.0 mph 16.0 mph 53 % 0.00 in
22:34 52.2 °F 35.6 °F 30.10 in NW 6.0 mph 16.0 mph 53 % 0.00 in
22:39 52.0 °F 35.8 °F 30.10 in NW 2.0 mph 13.0 mph 54 % 0.00 in
22:44 51.8 °F 35.2 °F 30.11 in WNW 4.0 mph 13.0 mph 53 % 0.00 in
22:49 51.4 °F 34.0 °F 30.11 in NW 3.0 mph 11.0 mph 51 % 0.00 in
22:54 51.1 °F 33.6 °F 30.11 in NW 5.0 mph 17.0 mph 51 % 0.00 in
22:59 50.7 °F 33.3 °F 30.11 in NW 5.0 mph 17.0 mph 51 % 0.00 in
23:04 50.7 °F 33.8 °F 30.11 in NNW 2.0 mph 17.0 mph 52 % 0.00 in
23:09 50.5 °F 33.6 °F 30.11 in NW 7.0 mph 16.0 mph 52 % 0.00 in
23:14 50.4 °F 33.4 °F 30.11 in NNW 9.0 mph 16.0 mph 52 % 0.00 in
23:19 50.4 °F 32.9 °F 30.11 in NNW 6.0 mph 16.0 mph 51 % 0.00 in
23:24 50.4 °F 32.9 °F 30.11 in NNW 8.0 mph 16.0 mph 51 % 0.00 in
23:29 50.2 °F 32.7 °F 30.12 in WNW 6.0 mph 17.0 mph 51 % 0.00 in
23:34 50.0 °F 33.1 °F 30.12 in NNW 10.0 mph 19.0 mph 52 % 0.00 in
23:39 49.8 °F 32.9 °F 30.11 in NW 7.0 mph 19.0 mph 52 % 0.00 in
23:44 49.8 °F 33.4 °F 30.11 in WNW 8.0 mph 19.0 mph 53 % 0.00 in
23:49 49.6 °F 33.3 °F 30.11 in West 3.0 mph 18.0 mph 53 % 0.00 in
23:54 49.6 °F 33.3 °F 30.11 in NNW 2.0 mph 15.0 mph 53 % 0.00 in
23:59 49.5 °F 33.4 °F 30.11 in WNW 9.0 mph 15.0 mph 54 % 0.00 in
Spring, Texas: Villages of Bridgestone
Compliments of Weather Underground - 2.75 mb

Script developed by  Jim McMurry - jmcmurry@mwt.net Adapted for the template by  Wim van der Kuil - Leuven-Template.eu

You find our weather info also at:

UK Metoffice

WeatherCloud

Weather Underground

Mid-South Weather Network

AWEKAS

Citizen Weather Observer Program (CWOP)

HAMweather, WeatherForYou, PWS Weather

Equipment we use:

Weather-station
Davis Vantage Vue

Weather-program
Meteohub

Weather-server
Debian 7.9 x86 (Guest)

Provider
DreamHost

Davis Vantage Vue

Meteohub

Debian 7.9 x86 (Guest)

DreamHost